Time;durP1;ratioP1;P1;durP2;ratioP2;P2;SDS_P1;SDS_P2;PMS_P1;PMS_P2;Temp;Humidity;BMP_temperature;BMP_pressure;BME280_temperature;BME280_humidity;BME280_pressure;Samples;Min_cycle;Max_cycle;Signal;HPM_P1;HPM_P2
2022/05/17 00:01:48;;;;;;;2.00;1.20;;;;;;;;;;6224768;23;20007;-55
2022/05/17 00:04:14;;;;;;;2.08;0.60;;;;;;;;;;6214962;23;20428;-55
2022/05/17 00:06:40;;;;;;;1.83;0.60;;;;;;;;;;6214975;23;20001;-54
2022/05/17 00:09:06;;;;;;;1.42;0.88;;;;;;;;;;6215256;23;20071;-54
2022/05/17 00:11:32;;;;;;;2.13;1.10;;;23.90;89.00;;;;;;6215234;23;19997;-52
2022/05/17 00:13:58;;;;;;;5.38;0.98;;;;;;;;;;6215248;23;20492;-53
2022/05/17 00:16:25;;;;;;;1.70;0.95;;;23.90;54.30;;;;;;6214838;23;20454;-56
2022/05/17 00:18:51;;;;;;;1.95;0.80;;;;;;;;;;6214883;23;19993;-54
2022/05/17 00:21:17;;;;;;;2.78;0.70;;;24.00;91.00;;;;;;6214861;23;20009;-56
2022/05/17 00:23:43;;;;;;;2.05;0.73;;;23.50;90.90;;;;;;6215196;23;19993;-55
2022/05/17 00:26:10;;;;;;;2.08;0.80;;;24.20;91.20;;;;;;6215186;23;20023;-55
2022/05/17 00:28:37;;;;;;;3.42;0.90;;;23.80;54.40;;;;;;6224895;23;19992;-55
2022/05/17 00:31:06;;;;;;;2.95;0.90;;;24.00;54.80;;;;;;6215114;23;20336;-55
2022/05/17 00:33:31;;;;;;;1.92;0.90;;;24.10;91.30;;;;;;6215173;23;20445;-55
2022/05/17 00:35:57;;;;;;;2.30;0.63;;;24.10;91.30;;;;;;6215065;23;20009;-55
2022/05/17 00:38:23;;;;;;;1.42;0.52;;;24.00;91.30;;;;;;6215034;23;19997;-55
2022/05/17 00:40:49;;;;;;;2.30;0.85;;;24.10;91.40;;;;;;6215098;23;20494;-55
2022/05/17 00:46:22;;;;;;;1.10;0.50;;;23.60;91.20;;;;;;6214722;23;20059;-55
2022/05/17 00:48:50;;;;;;;2.42;0.90;;;23.50;56.70;;;;;;6215101;23;20067;-55
2022/05/17 00:51:16;;;;;;;1.85;0.60;;;24.20;91.30;;;;;;6215012;23;20333;-54
2022/05/17 00:53:43;;;;;;;1.17;0.70;;;;;;;;;;6214655;23;20510;-55
2022/05/17 00:56:16;;;;;;;2.22;0.95;;;24.00;91.30;;;;;;6214784;23;20012;-53
2022/05/17 00:58:48;;;;;;;1.50;0.75;;;23.70;56.40;;;;;;6215018;23;19996;-55
2022/05/17 01:01:17;;;;;;;2.17;0.82;;;24.00;56.60;;;;;;6214770;23;20031;-54
2022/05/17 01:03:46;;;;;;;1.55;0.75;;;24.00;91.00;;;;;;6214866;23;20028;-56
2022/05/17 01:06:13;;;;;;;2.30;0.63;;;23.70;80.40;;;;;;6214937;23;20028;-54
2022/05/17 01:08:39;;;;;;;2.33;0.85;;;24.10;91.10;;;;;;6214797;23;20005;-54
2022/05/17 01:11:04;;;;;;;2.65;0.80;;;23.80;91.20;;;;;;6214977;23;20039;-45
2022/05/17 01:16:15;;;;;;;1.70;0.77;;;23.40;91.20;;;;;;6224539;23;20023;-45
2022/05/17 01:18:42;;;;;;;1.42;0.50;;;23.60;91.10;;;;;;6214774;23;20320;-45
2022/05/17 01:21:11;;;;;;;1.98;0.65;;;24.00;91.30;;;;;;6214436;23;20522;-45
2022/05/17 01:23:38;;;;;;;2.35;0.70;;;;;;;;;;6214325;23;19992;-44
2022/05/17 01:26:05;;;;;;;1.50;0.70;;;;;;;;;;6214389;23;20019;-45
2022/05/17 01:28:35;;;;;;;1.55;0.93;;;23.60;91.30;;;;;;6214798;23;20020;-45
2022/05/17 01:31:06;;;;;;;2.60;0.60;;;24.00;91.40;;;;;;6214825;23;19996;-44
2022/05/17 01:33:34;;;;;;;2.20;0.70;;;23.80;56.80;;;;;;6187782;23;20024;-44
2022/05/17 01:36:02;;;;;;;1.70;0.60;;;23.70;55.20;;;;;;6214671;23;20332;-44
2022/05/17 01:38:28;;;;;;;1.52;0.70;;;;;;;;;;6214607;23;19996;-44
2022/05/17 01:40:54;;;;;;;1.25;0.80;;;;;;;;;;6214676;23;20005;-44
2022/05/17 01:43:20;;;;;;;1.55;0.80;;;23.70;55.60;;;;;;6224429;23;19999;-44
2022/05/17 01:45:46;;;;;;;2.13;0.82;;;;;;;;;;6214736;23;20381;-45
2022/05/17 01:48:12;;;;;;;1.05;0.65;;;;;;;;;;6226428;23;20379;-45
2022/05/17 01:50:38;;;;;;;1.33;0.70;;;;;;;;;;6216266;23;20007;-45
2022/05/17 01:53:04;;;;;;;1.77;0.70;;;23.60;55.00;;;;;;6216611;23;20020;-44
2022/05/17 01:55:30;;;;;;;1.40;0.90;;;;;;;;;;6216088;23;20005;-44
2022/05/17 01:57:56;;;;;;;4.43;0.90;;;;;;;;;;6216557;23;19993;-44
2022/05/17 02:00:23;;;;;;;2.80;0.77;;;23.90;80.60;;;;;;6216555;23;19997;-44
2022/05/17 02:02:50;;;;;;;0.90;0.50;;;23.70;91.50;;;;;;6215981;23;20020;-44
2022/05/17 02:05:17;;;;;;;1.50;0.80;;;23.70;57.20;;;;;;6216659;23;20055;-44
2022/05/17 02:07:43;;;;;;;1.30;0.68;;;24.00;91.60;;;;;;6216545;23;20005;-45
2022/05/17 02:10:09;;;;;;;2.28;0.82;;;23.40;91.40;;;;;;6215934;23;20004;-44
2022/05/17 02:12:35;;;;;;;2.35;0.75;;;23.70;91.50;;;;;;6216430;23;19997;-45
2022/05/17 02:15:05;;;;;;;1.52;0.70;;;23.60;56.90;;;;;;6226161;23;20031;-44
2022/05/17 02:17:32;;;;;;;2.65;0.65;;;;;;;;;;6216052;23;20000;-44
2022/05/17 02:19:59;;;;;;;2.17;0.77;;;23.80;91.30;;;;;;6226149;23;19996;-45
2022/05/17 02:22:25;;;;;;;1.13;0.70;;;23.30;91.20;;;;;;6216420;23;20038;-44
2022/05/17 02:24:51;;;;;;;1.83;0.77;;;23.60;91.10;;;;;;6226245;23;19993;-55
2022/05/17 02:27:17;;;;;;;3.20;1.00;;;23.30;90.90;;;;;;6216415;23;20351;-55
2022/05/17 02:29:43;;;;;;;2.25;0.70;;;23.30;90.80;;;;;;6216296;23;20324;-55
2022/05/17 02:32:09;;;;;;;2.13;0.77;;;23.90;90.90;;;;;;6216331;23;19997;-56
2022/05/17 02:34:36;;;;;;;1.95;0.70;;;23.60;91.00;;;;;;6226043;23;20101;-55
2022/05/17 02:37:03;;;;;;;1.45;0.60;;;23.60;57.30;;;;;;6215772;23;20055;-54
2022/05/17 02:39:28;;;;;;;1.67;0.75;;;23.90;91.10;;;;;;6216211;23;20071;-55
2022/05/17 02:41:54;;;;;;;2.15;0.80;;;;;;;;;;6216182;23;20001;-44
2022/05/17 02:44:21;;;;;;;1.95;0.63;;;21.20;51.90;;;;;;6216152;23;20011;-45
2022/05/17 02:46:47;;;;;;;1.58;0.90;;;;;;;;;;6216116;23;20048;-45
2022/05/17 02:49:13;;;;;;;2.55;0.88;;;23.10;91.00;;;;;;6215704;23;20000;-44
2022/05/17 02:51:39;;;;;;;2.10;0.80;;;;;;;;;;6216054;23;19997;-44
2022/05/17 02:54:07;;;;;;;1.50;0.73;;;23.20;91.00;;;;;;6215630;23;20008;-44
2022/05/17 02:56:33;;;;;;;1.13;0.50;;;;;;;;;;6215989;23;20005;-45
2022/05/17 02:58:59;;;;;;;1.73;0.77;;;23.80;91.20;;;;;;6215409;23;19996;-45
2022/05/17 03:01:25;;;;;;;1.52;0.70;;;;;;;;;;6215556;23;20055;-44
2022/05/17 03:03:51;;;;;;;1.58;0.70;;;;;;;;;;6225727;23;20004;-44
2022/05/17 03:06:17;;;;;;;1.83;0.80;;;23.80;91.10;;;;;;6215939;23;20051;-46
2022/05/17 03:08:42;;;;;;;2.72;0.80;;;23.90;91.20;;;;;;6216017;23;20036;-45
2022/05/17 03:11:10;;;;;;;2.08;0.65;;;23.50;55.40;;;;;;6215862;23;20001;-45
2022/05/17 03:13:35;;;;;;;1.15;0.73;;;23.30;91.00;;;;;;6215936;23;19993;-44
2022/05/17 03:16:02;;;;;;;1.40;0.60;;;23.30;90.70;;;;;;6214520;23;20009;-45
2022/05/17 03:18:28;;;;;;;2.72;0.90;;;;;;;;;;6204180;23;19996;-44
2022/05/17 03:20:54;;;;;;;1.23;0.70;;;;;;;;;;6215738;23;20059;-44
2022/05/17 03:23:20;;;;;;;1.80;0.82;;;;;;;;;;6215400;23;20088;-44
2022/05/17 03:25:46;;;;;;;1.50;0.68;;;;;;;;;;6215777;23;20031;-46
2022/05/17 03:28:13;;;;;;;2.30;0.70;;;23.60;56.10;;;;;;6215672;23;20405;-45
2022/05/17 03:30:42;;;;;;;0.77;0.55;;;23.50;91.00;;;;;;6215682;23;20023;-44
2022/05/17 03:33:08;;;;;;;1.45;0.70;;;23.10;91.00;;;;;;6225378;23;20064;-44
2022/05/17 03:35:34;;;;;;;1.20;0.70;;;23.90;57.60;;;;;;6215309;23;20466;-44
2022/05/17 03:38:00;;;;;;;3.10;0.80;;;;;;;;;;6215282;23;20079;-44
2022/05/17 03:40:26;;;;;;;1.30;0.70;;;;;;;;;;6215675;23;20000;-44
2022/05/17 03:42:52;;;;;;;2.15;1.08;;;;;;;;;;6215169;23;20091;-44
2022/05/17 03:45:18;;;;;;;1.88;0.85;;;;;;;;;;6215506;23;20039;-44
2022/05/17 03:47:44;;;;;;;2.22;0.70;;;;;;;;;;6215196;23;20004;-45
2022/05/17 03:50:12;;;;;;;3.35;0.85;;;23.50;56.20;;;;;;6225129;23;19997;-45
2022/05/17 03:52:37;;;;;;;2.60;0.82;;;23.30;91.00;;;;;;6215682;23;20172;-44
2022/05/17 03:55:05;;;;;;;1.52;0.65;;;23.50;56.50;;;;;;6215322;23;20116;-45
2022/05/17 03:57:31;;;;;;;2.38;0.90;;;23.80;91.10;;;;;;6215076;23;19997;-45
2022/05/17 03:59:57;;;;;;;1.83;0.55;;;23.60;91.10;;;;;;6215389;23;20068;-44
2022/05/17 04:02:23;;;;;;;1.20;0.75;;;23.00;91.00;;;;;;6214923;23;20107;-44
2022/05/17 04:04:53;;;;;;;2.55;0.60;;;23.40;91.10;;;;;;6215349;23;20047;-45
2022/05/17 04:07:20;;;;;;;1.48;0.50;;;23.30;91.10;;;;;;6225101;23;20076;-44
2022/05/17 04:09:46;;;;;;;2.55;0.60;;;23.40;91.20;;;;;;6214932;23;19993;-44
2022/05/17 04:12:11;;;;;;;1.45;0.80;;;23.20;91.10;;;;;;6215375;23;20084;-44
2022/05/17 04:14:37;;;;;;;2.00;0.63;;;23.00;91.10;;;;;;6188404;23;20336;-45
2022/05/17 04:17:03;;;;;;;1.27;0.70;;;23.30;91.20;;;;;;6224936;23;20008;-44
2022/05/17 04:19:29;;;;;;;1.25;0.60;;;23.30;91.10;;;;;;6215301;23;20035;-45
2022/05/17 04:21:55;;;;;;;1.95;0.90;;;23.50;91.20;;;;;;6215246;23;20361;-44
2022/05/17 04:24:21;;;;;;;1.10;0.70;;;22.90;91.10;;;;;;6215231;23;20000;-44
2022/05/17 04:26:47;;;;;;;2.50;0.70;;;23.20;91.20;;;;;;6215281;23;20003;-45
2022/05/17 04:29:12;;;;;;;1.05;0.57;;;23.70;91.30;;;;;;6215151;23;20108;-45
2022/05/17 04:31:38;;;;;;;1.30;0.60;;;;;;;;;;6214841;23;19996;-44
2022/05/17 04:34:04;;;;;;;2.35;0.63;;;;;;;;;;6215199;23;20000;-45
2022/05/17 04:36:30;;;;;;;1.60;0.82;;;23.20;67.00;;;;;;6214968;23;20559;-44
2022/05/17 04:38:56;;;;;;;1.58;0.60;;;;;;;;;;6215095;23;20019;-44
2022/05/17 04:41:21;;;;;;;1.42;0.70;;;23.30;91.30;;;;;;6215041;23;20019;-44
2022/05/17 04:43:47;;;;;;;1.92;0.85;;;23.70;91.30;;;;;;6214747;23;20530;-44
2022/05/17 04:46:14;;;;;;;1.30;0.50;;;23.20;91.20;;;;;;6214953;23;20099;-43
2022/05/17 04:48:39;;;;;;;1.55;0.70;;;23.00;91.10;;;;;;6214513;23;20023;-44
2022/05/17 04:51:10;;;;;;;1.30;0.70;;;23.70;91.30;;;;;;6215092;23;20483;-44
2022/05/17 04:53:37;;;;;;;1.15;0.82;;;23.40;55.40;;;;;;6215001;23;20387;-44
2022/05/17 04:56:04;;;;;;;1.13;0.70;;;20.80;55.30;;;;;;6214867;23;20011;-44
2022/05/17 04:58:29;;;;;;;1.63;0.57;;;23.10;91.10;;;;;;6214948;23;20298;-44
2022/05/17 05:00:55;;;;;;;1.60;0.77;;;;;;;;;;6214963;23;20003;-44
2022/05/17 05:03:21;;;;;;;0.93;0.60;;;23.30;91.20;;;;;;6214390;23;20391;-45
2022/05/17 05:05:49;;;;;;;1.00;0.60;;;23.50;91.30;;;;;;6214891;23;19996;-44
2022/05/17 05:08:14;;;;;;;1.85;0.90;;;23.40;91.20;;;;;;6214863;23;20371;-44
2022/05/17 05:10:42;;;;;;;1.85;0.77;;;;;;;;;;6214916;23;20000;-45
2022/05/17 05:13:18;;;;;;;2.05;0.70;;;23.40;56.70;;;;;;6214415;23;20453;-44
2022/05/17 05:15:43;;;;;;;1.10;0.70;;;23.10;91.20;;;;;;6224446;23;20008;-44
2022/05/17 05:18:10;;;;;;;1.52;0.63;;;23.30;91.20;;;;;;6214806;23;20003;-44
2022/05/17 05:20:36;;;;;;;1.63;0.68;;;;;;;;;;6214508;23;19996;-45
2022/05/17 05:23:02;;;;;;;3.15;0.80;;;;;;;;;;6224229;23;20074;-45
2022/05/17 05:25:28;;;;;;;1.85;0.70;;;;;;;;;;6214679;23;20024;-44
2022/05/17 05:27:54;;;;;;;1.85;0.77;;;;;;;;;;6214860;23;20000;-45
2022/05/17 05:30:20;;;;;;;3.67;0.70;;;21.60;56.10;;;;;;6187751;23;20091;-44
2022/05/17 05:32:47;;;;;;;1.30;1.00;;;;;;;;;;6214181;23;19993;-44
2022/05/17 05:35:18;;;;;;;1.13;0.82;;;23.30;91.20;;;;;;6214174;23;20444;-44
2022/05/17 05:37:44;;;;;;;0.93;0.60;;;;;;;;;;6214634;23;20007;-45
2022/05/17 05:40:11;;;;;;;0.57;0.55;;;23.40;57.00;;;;;;6214598;23;19999;-44
2022/05/17 05:42:39;;;;;;;2.88;0.80;;;23.30;91.30;;;;;;6214622;23;19997;-45
2022/05/17 05:45:05;;;;;;;3.15;0.98;;;23.40;83.00;;;;;;6214688;23;19993;-44
2022/05/17 05:47:31;;;;;;;1.38;0.88;;;23.40;91.30;;;;;;6214605;23;20001;-44
2022/05/17 05:49:57;;;;;;;1.20;0.70;;;;;;;;;;6214608;23;20554;-44
2022/05/17 05:52:23;;;;;;;1.75;0.68;;;23.60;60.50;;;;;;6214584;23;20015;-44
2022/05/17 05:54:49;;;;;;;1.40;0.65;;;23.60;91.40;;;;;;6214490;23;19997;-44
2022/05/17 05:57:15;;;;;;;1.92;0.80;;;;;;;;;;6224358;23;20008;-44
2022/05/17 05:59:41;;;;;;;2.15;1.02;;;;;;;;;;6214464;23;20000;-43
2022/05/17 06:02:11;;;;;;;2.35;1.00;;;23.40;91.60;;;;;;6213708;23;20028;-43
2022/05/17 06:04:37;;;;;;;2.47;1.10;;;23.20;91.60;;;;;;6214155;23;19997;-43
2022/05/17 06:07:03;;;;;;;5.20;0.80;;;23.00;91.60;;;;;;6214686;23;20132;-43
2022/05/17 06:09:30;;;;;;;2.53;1.10;;;;;;;;;;6214147;23;20025;-44
2022/05/17 06:11:55;;;;;;;3.30;0.98;;;23.30;91.60;;;;;;6214546;23;20008;-43
2022/05/17 06:14:22;;;;;;;2.78;0.85;;;;;;;;;;6214227;23;19997;-43
2022/05/17 06:16:48;;;;;;;2.05;0.90;;;23.20;91.60;;;;;;6214364;23;20008;-43
2022/05/17 06:19:14;;;;;;;3.10;0.90;;;;;;;;;;6214579;23;20011;-43
2022/05/17 06:21:40;;;;;;;4.55;1.23;;;;;;;;;;6214114;23;20001;-44
2022/05/17 06:24:06;;;;;;;5.72;1.08;;;23.00;57.50;;;;;;6214559;23;20068;-44
2022/05/17 06:26:33;;;;;;;1.75;0.68;;;23.30;56.10;;;;;;6214419;23;19997;-44
2022/05/17 06:28:59;;;;;;;4.72;0.85;;;;;;;;;;6214423;23;20051;-44
2022/05/17 06:31:25;;;;;;;2.85;0.95;;;23.50;91.80;;;;;;6213986;23;20055;-44
2022/05/17 06:33:51;;;;;;;3.20;1.00;;;23.20;57.00;;;;;;6215573;23;19992;-44
2022/05/17 06:36:16;;;;;;;4.57;0.90;;;23.30;91.70;;;;;;6216219;23;20009;-44
2022/05/17 06:38:42;;;;;;;5.22;1.20;;;;;;;;;;6215410;23;20024;-44
2022/05/17 06:41:08;;;;;;;2.55;1.10;;;;;;;;;;6215192;23;20007;-45
2022/05/17 06:43:34;;;;;;;7.50;1.25;;;;;;;;;;6215779;23;20009;-43
2022/05/17 06:46:01;;;;;;;3.42;0.88;;;23.30;58.40;;;;;;6216066;23;20327;-45
2022/05/17 06:48:31;;;;;;;2.28;1.10;;;23.20;56.50;;;;;;6215691;23;20450;-44
2022/05/17 06:51:04;;;;;;;4.25;1.00;;;23.10;92.00;;;;;;6215896;23;20024;-43
2022/05/17 06:53:31;;;;;;;5.70;1.10;;;23.20;56.90;;;;;;6225800;23;19996;-44
2022/05/17 06:55:57;;;;;;;4.93;0.93;;;;;;;;;;6215887;23;20009;-44
2022/05/17 06:58:23;;;;;;;4.40;1.08;;;23.30;92.10;;;;;;6199396;23;19996;-44
2022/05/17 07:00:49;;;;;;;2.45;0.98;;;23.30;92.00;;;;;;6215915;23;19996;-44
2022/05/17 07:03:15;;;;;;;2.08;0.75;;;23.20;92.10;;;;;;6215371;23;20396;-44
2022/05/17 07:05:41;;;;;;;5.30;1.00;;;;;;;;;;6216245;23;20047;-44
2022/05/17 07:08:07;;;;;;;2.58;1.17;;;23.00;92.00;;;;;;6216007;23;20008;-44
2022/05/17 07:13:17;;;;;;;3.67;0.80;;;23.10;92.10;;;;;;6215578;23;20015;-45
2022/05/17 07:15:45;;;;;;;2.13;1.05;;;23.10;92.10;;;;;;6215728;23;20009;-44
2022/05/17 07:18:12;;;;;;;4.60;1.67;;;22.90;92.10;;;;;;6215882;23;20008;-45
2022/05/17 07:20:39;;;;;;;7.30;1.30;;;;;;;;;;6215904;23;20028;-45
2022/05/17 07:23:05;;;;;;;6.53;1.60;;;23.30;92.20;;;;;;6215742;23;20413;-44
2022/05/17 07:25:32;;;;;;;4.28;1.10;;;23.10;92.10;;;;;;6215352;23;20028;-44
2022/05/17 07:27:58;;;;;;;1.65;1.20;;;;;;;;;;6215308;23;20039;-45
2022/05/17 07:30:23;;;;;;;2.78;1.00;;;23.10;63.30;;;;;;6215637;23;20001;-44
2022/05/17 07:32:49;;;;;;;3.00;0.82;;;22.70;92.10;;;;;;6215695;23;20580;-44
2022/05/17 07:35:15;;;;;;;2.33;0.98;;;;;;;;;;6215575;23;20005;-45
2022/05/17 07:37:41;;;;;;;4.80;1.00;;;23.30;92.20;;;;;;6215692;23;20345;-44
2022/05/17 07:40:07;;;;;;;3.35;1.20;;;22.90;92.00;;;;;;6215538;23;20048;-45
2022/05/17 07:42:33;;;;;;;3.72;1.20;;;23.10;83.00;;;;;;6215641;23;20360;-44
2022/05/17 07:44:58;;;;;;;3.70;1.20;;;23.10;76.40;;;;;;6215183;23;20071;-45
2022/05/17 07:47:24;;;;;;;3.25;0.90;;;;;;;;;;6215136;23;20313;-44
2022/05/17 07:49:50;;;;;;;2.78;1.05;;;;;;;;;;6225196;23;20039;-44
2022/05/17 07:52:16;;;;;;;2.30;1.10;;;23.20;59.30;;;;;;6215404;23;20005;-44
2022/05/17 07:54:43;;;;;;;3.47;1.20;;;;;;;;;;6215528;23;20072;-44
2022/05/17 07:57:09;;;;;;;2.15;1.10;;;;;;;;;;6215364;23;20012;-45
2022/05/17 07:59:35;;;;;;;4.90;1.23;;;23.30;91.90;;;;;;6215416;23;20063;-44
2022/05/17 08:02:01;;;;;;;1.63;0.93;;;;;;;;;;6214978;23;20443;-44
2022/05/17 08:04:30;;;;;;;3.17;0.98;;;;;;;;;;6214950;23;20007;-44
2022/05/17 08:06:56;;;;;;;4.35;1.02;;;23.40;92.00;;;;;;6215065;23;20005;-45
2022/05/17 08:09:23;;;;;;;1.95;0.85;;;23.40;91.90;;;;;;6214818;23;19997;-45
2022/05/17 08:11:49;;;;;;;3.65;1.00;;;22.70;91.70;;;;;;6215228;23;20007;-45
2022/05/17 08:14:17;;;;;;;1.52;0.70;;;22.20;55.60;;;;;;6214781;23;20104;-46
2022/05/17 08:16:43;;;;;;;1.70;0.90;;;;;;;;;;6215065;23;20011;-45
2022/05/17 08:19:10;;;;;;;2.95;0.82;;;23.00;91.60;;;;;;6214983;23;20042;-46
2022/05/17 08:21:35;;;;;;;4.65;1.08;;;23.10;91.60;;;;;;6214901;23;19997;-45
2022/05/17 08:24:01;;;;;;;3.95;0.85;;;23.10;91.60;;;;;;6215104;23;19993;-46
2022/05/17 08:29:12;;;;;;;4.10;0.70;;;23.50;91.80;;;;;;6224841;23;20011;-45
2022/05/17 08:31:38;;;;;;;2.38;0.70;;;;;;;;;;6215078;23;20007;-47
2022/05/17 08:34:06;;;;;;;2.63;1.02;;;;;;;;;;6214969;23;20032;-46
2022/05/17 08:36:32;;;;;;;3.17;0.90;;;23.20;91.40;;;;;;6214570;23;20054;-46
2022/05/17 08:38:58;;;;;;;2.55;0.90;;;;;;;;;;6214617;23;19993;-46
2022/05/17 08:41:36;;;;;;;1.65;0.88;;;23.40;53.70;;;;;;6214762;23;20047;-47
2022/05/17 08:44:14;;;;;;;2.72;0.82;;;23.20;91.30;;;;;;6215034;23;20000;-47
2022/05/17 08:46:48;;;;;;;2.05;0.80;;;23.00;91.30;;;;;;6215027;23;20058;-47
2022/05/17 08:49:36;;;;;;;2.20;0.70;;;23.60;57.50;;;;;;6214916;23;20000;-47
2022/05/17 08:52:13;;;;;;;3.60;0.95;;;23.70;74.40;;;;;;6214479;23;20068;-46
2022/05/17 08:54:56;;;;;;;1.75;0.70;;;23.30;82.60;;;;;;6214919;23;20051;-46
2022/05/17 08:57:43;;;;;;;1.70;0.90;;;23.50;53.60;;;;;;6213979;23;20120;-46
2022/05/17 09:00:19;;;;;;;2.92;0.98;;;23.50;53.80;;;;;;6214497;23;20001;-46
2022/05/17 09:03:28;;;;;;;2.42;1.20;;;23.00;91.40;;;;;;6214329;23;20446;-46
2022/05/17 09:05:54;;;;;;;1.45;0.90;;;;;;;;;;6214376;23;20439;-46
2022/05/17 09:08:35;;;;;;;4.00;0.88;;;23.50;57.60;;;;;;6214680;23;20124;-46
2022/05/17 09:11:23;;;;;;;1.83;0.63;;;23.10;91.30;;;;;;6214809;23;20001;-46
2022/05/17 09:14:14;;;;;;;2.00;0.77;;;23.80;91.60;;;;;;6214815;23;20000;-47
2022/05/17 09:16:46;;;;;;;1.05;0.73;;;23.70;57.20;;;;;;6214695;23;20348;-47
2022/05/17 09:19:16;;;;;;;1.75;0.80;;;23.70;57.40;;;;;;6214453;23;19993;-47
2022/05/17 09:21:44;;;;;;;1.77;0.90;;;23.70;57.20;;;;;;6214850;23;19997;-46
2022/05/17 09:24:12;;;;;;;1.70;0.80;;;23.70;57.30;;;;;;6214330;23;19997;-46
2022/05/17 09:26:40;;;;;;;1.40;0.70;;;23.70;55.50;;;;;;6214307;23;19992;-46
2022/05/17 09:29:27;;;;;;;2.70;0.70;;;23.80;91.50;;;;;;6214323;23;20001;-46
2022/05/17 09:31:59;;;;;;;4.15;1.05;;;23.80;91.50;;;;;;6214706;23;20004;-45
2022/05/17 09:34:34;;;;;;;1.92;0.80;;;24.10;90.40;;;;;;6214350;23;20575;-46
2022/05/17 09:37:20;;;;;;;1.40;0.77;;;24.30;53.90;;;;;;6214636;23;20075;-46
2022/05/17 09:39:50;;;;;;;1.52;0.70;;;24.00;91.40;;;;;;6214795;23;20000;-46
2022/05/17 09:42:29;;;;;;;4.45;0.80;;;23.90;67.10;;;;;;6214333;23;19997;-47
2022/05/17 09:44:56;;;;;;;1.38;0.70;;;23.90;91.30;;;;;;6214692;23;20007;-46
2022/05/17 09:47:33;;;;;;;2.50;0.57;;;24.10;91.40;;;;;;6214647;23;20040;-46
2022/05/17 09:53:01;;;;;;;3.13;0.70;;;24.30;56.40;;;;;;6224414;23;20087;-46
2022/05/17 09:55:30;;;;;;;2.30;0.70;;;24.10;91.20;;;;;;6224258;23;20080;-46
2022/05/17 09:58:05;;;;;;;1.90;0.95;;;24.50;56.90;;;;;;6214536;23;20035;-45
2022/05/17 10:00:43;;;;;;;1.33;0.70;;;24.10;53.30;;;;;;6214531;23;20336;-46
2022/05/17 10:03:14;;;;;;;2.20;0.85;;;24.10;91.00;;;;;;6214670;23;20021;-46
2022/05/17 10:05:40;;;;;;;0.90;0.50;;;;;;;;;;6214601;23;20438;-47
2022/05/17 10:08:30;;;;;;;2.17;0.70;;;24.10;56.40;;;;;;6214987;23;20039;-47
2022/05/17 10:11:02;;;;;;;;;;;24.10;53.80;;;;;;6216905;23;20328;-46
2022/05/17 10:13:34;;;;;;;2.70;0.90;;;24.20;56.30;;;;;;6216737;23;19899;-46
2022/05/17 10:16:12;;;;;;;2.08;0.85;;;23.80;90.90;;;;;;6216008;23;20016;-47
2022/05/17 10:19:08;;;;;;;1.70;0.80;;;24.10;52.90;;;;;;6216291;23;20067;-45
2022/05/17 10:21:53;;;;;;;1.77;0.70;;;24.10;52.90;;;;;;6213298;23;20012;-47
2022/05/17 10:24:44;;;;;;;2.05;0.60;;;24.20;82.30;;;;;;6226030;23;20055;-46
2022/05/17 10:27:19;;;;;;;2.80;0.50;;;24.30;52.80;;;;;;6215970;23;20439;-47
2022/05/17 10:29:53;;;;;;;1.38;0.68;;;24.10;90.80;;;;;;6216179;23;19997;-47
2022/05/17 10:32:34;;;;;;;1.33;0.77;;;24.30;84.80;;;;;;6215950;23;20036;-46
2022/05/17 10:35:22;;;;;;;2.20;0.70;;;24.50;90.70;;;;;;6216275;23;20353;-47
2022/05/17 10:37:57;;;;;;;1.10;0.60;;;24.40;90.70;;;;;;6216146;23;20383;-46
2022/05/17 10:40:28;;;;;;;2.53;0.55;;;24.10;90.40;;;;;;6215824;23;20455;-46
2022/05/17 10:42:54;;;;;;;0.90;0.47;;;25.20;54.80;;;;;;6215720;23;20051;-45
2022/05/17 10:45:36;;;;;;;2.40;0.93;;;24.20;52.80;;;;;;6216183;23;19996;-45
2022/05/17 10:48:13;;;;;;;2.17;0.45;;;24.70;90.50;;;;;;6215764;23;20000;-46
2022/05/17 10:50:51;;;;;;;1.00;0.57;;;24.80;90.50;;;;;;6216060;23;20360;-59
2022/05/17 10:53:54;;;;;;;3.33;1.17;;;24.50;90.40;;;;;;6216119;23;20020;-60
2022/05/17 10:56:47;;;;;;;2.55;0.50;;;24.50;52.20;;;;;;6215833;23;20087;-59
2022/05/17 10:59:13;;;;;;;1.83;0.60;;;;;;;;;;6215835;23;20032;-59
2022/05/17 11:02:00;;;;;;;1.25;0.60;;;24.90;90.40;;;;;;6215581;23;20106;-59
2022/05/17 11:05:01;;;;;;;0.93;0.50;;;24.60;54.90;;;;;;6215432;23;20522;-59
2022/05/17 11:07:39;;;;;;;1.60;0.73;;;24.60;52.00;;;;;;6215881;23;20083;-60
2022/05/17 11:10:21;;;;;;;2.55;0.82;;;24.80;79.00;;;;;;6215278;23;20450;-59
2022/05/17 11:12:52;;;;;;;0.93;0.63;;;24.70;90.40;;;;;;6215889;23;19992;-59
2022/05/17 11:15:32;;;;;;;1.85;0.50;;;24.50;90.30;;;;;;6215832;23;20008;-60
2022/05/17 11:18:20;;;;;;;;;;;24.70;55.30;;;;;;6216290;23;20101;-59
2022/05/17 11:21:02;;;;;;;1.65;0.60;;;24.80;51.90;;;;;;6215088;23;20324;-59
2022/05/17 11:23:50;;;;;;;1.48;0.60;;;24.80;65.40;;;;;;6225554;23;19997;-59
2022/05/17 11:26:28;;;;;;;1.40;0.50;;;24.60;90.20;;;;;;6215424;23;20028;-60
2022/05/17 11:28:59;;;;;;;0.60;0.40;;;24.80;54.60;;;;;;6215364;23;20004;-59
2022/05/17 11:32:01;;;;;;;1.55;0.82;;;24.60;90.20;;;;;;6215796;23;20000;-59
2022/05/17 11:34:29;;;;;;;1.13;0.52;;;25.10;70.00;;;;;;6215598;23;20309;-59
2022/05/17 11:37:08;;;;;;;0.88;0.60;;;24.80;54.30;;;;;;6215835;23;20363;-59
2022/05/17 11:39:36;;;;;;;0.85;0.50;;;24.50;90.20;;;;;;6215255;23;20004;-59
2022/05/17 11:45:51;;;;;;;1.40;0.70;;;24.90;51.70;;;;;;6136775;23;20031;-59
2022/05/17 11:48:20;;;;;;;1.83;0.60;;;24.80;70.00;;;;;;6188756;23;20003;-59
2022/05/17 11:50:52;;;;;;;2.63;0.73;;;25.00;90.20;;;;;;6214899;23;19997;-59
2022/05/17 11:53:23;;;;;;;2.17;0.60;;;24.70;90.00;;;;;;6214975;23;19996;-59
2022/05/17 11:56:16;;;;;;;1.30;0.65;;;25.00;81.10;;;;;;6215245;23;20015;-59
2022/05/17 11:58:43;;;;;;;1.45;0.60;;;25.20;90.30;;;;;;6215074;23;20000;-59
2022/05/17 12:01:31;;;;;;;1.77;0.50;;;24.80;90.00;;;;;;6214823;23;19997;-59
2022/05/17 12:04:02;;;;;;;1.45;0.50;;;24.90;80.80;;;;;;6214809;23;20044;-59
2022/05/17 12:06:43;;;;;;;0.80;0.63;;;24.80;90.10;;;;;;6215456;23;19996;-59
2022/05/17 12:09:11;;;;;;;1.52;0.60;;;24.80;54.20;;;;;;6214840;23;20067;-59
2022/05/17 12:12:18;;;;;;;1.90;0.85;;;24.90;86.60;;;;;;6215138;23;20067;-59
2022/05/17 12:15:10;;;;;;;3.40;0.68;;;25.00;54.10;;;;;;6093511;23;20006;-59
2022/05/17 12:17:36;;;;;;;0.93;0.40;;;;;;;;;;6211726;23;20004;-58
2022/05/17 12:20:14;;;;;;;0.95;0.40;;;25.30;90.00;;;;;;6214722;23;20079;-58
2022/05/17 12:22:52;;;;;;;0.70;0.50;;;25.00;54.20;;;;;;6214885;23;20028;-59
2022/05/17 12:25:52;;;;;;;0.95;0.60;;;25.00;51.60;;;;;;6214776;23;20322;-58
2022/05/17 12:28:31;;;;;;;1.15;0.60;;;24.70;90.00;;;;;;6215073;23;20000;-59
2022/05/17 12:31:00;;;;;;;1.25;0.65;;;24.60;89.90;;;;;;6215346;23;20305;-59
2022/05/17 12:33:31;;;;;;;1.30;0.63;;;25.10;54.50;;;;;;6214931;23;20000;-59
2022/05/17 12:36:23;;;;;;;0.88;0.35;;;24.90;77.50;;;;;;6214616;23;20004;-59
2022/05/17 12:44:33;;;;;;;1.70;0.43;;;25.00;90.20;;;;;;6214750;23;20282;-59
2022/05/17 12:47:00;;;;;;;;;;;25.20;55.40;;;;;;6215496;23;19992;-59
2022/05/17 12:49:29;;;;;;;0.70;0.50;;;24.90;54.60;;;;;;6214728;23;20315;-59
2022/05/17 12:52:25;;;;;;;1.55;0.88;;;25.40;90.40;;;;;;6214608;23;20026;-59
2022/05/17 12:54:51;;;;;;;2.65;0.60;;;;;;;;;;6214920;23;20008;-59
2022/05/17 12:57:27;;;;;;;1.20;0.60;;;25.70;90.50;;;;;;6214102;23;20495;-59
2022/05/17 12:59:53;;;;;;;1.10;0.63;;;;;;;;;;6214893;23;19996;-59
2022/05/17 13:02:24;;;;;;;0.63;0.45;;;25.10;51.70;;;;;;6214372;23;20009;-59
2022/05/17 13:04:50;;;;;;;0.50;0.50;;;25.20;90.30;;;;;;6214691;23;19997;-59
2022/05/17 13:07:19;;;;;;;2.35;0.40;;;24.90;90.20;;;;;;6214573;23;20523;-58
2022/05/17 13:09:58;;;;;;;0.40;0.30;;;25.50;90.40;;;;;;6214631;23;20001;-59
2022/05/17 13:12:27;;;;;;;1.20;0.65;;;25.10;54.60;;;;;;6214544;23;20013;-59
2022/05/17 13:14:53;;;;;;;2.83;0.57;;;;;;;;;;6214746;23;20075;-59
2022/05/17 13:17:28;;;;;;;0.85;0.40;;;25.50;88.30;;;;;;6214125;23;20013;-59
2022/05/17 13:19:58;;;;;;;1.10;0.70;;;25.60;78.60;;;;;;6214562;23;20007;-58
2022/05/17 13:22:25;;;;;;;3.33;0.60;;;25.30;55.00;;;;;;6214530;23;20076;-59
2022/05/17 13:25:00;;;;;;;3.03;1.00;;;25.40;90.20;;;;;;6224130;23;19996;-59
2022/05/17 13:27:30;;;;;;;1.80;0.70;;;24.80;90.30;;;;;;6214334;23;20129;-59
2022/05/17 13:29:57;;;;;;;;;;;25.40;56.00;;;;;;6215028;23;20011;-59
2022/05/17 13:32:25;;;;;;;1.65;0.63;;;25.20;55.00;;;;;;6214746;23;19979;-59
2022/05/17 13:35:09;;;;;;;1.38;0.70;;;24.90;90.40;;;;;;6214172;23;19997;-59
2022/05/17 13:37:53;;;;;;;1.50;0.70;;;25.30;54.70;;;;;;6214580;23;20008;-59
2022/05/17 13:40:38;;;;;;;5.18;0.98;;;24.70;90.40;;;;;;6214426;23;20055;-57
2022/05/17 13:43:31;;;;;;;6.13;1.20;;;24.80;54.60;;;;;;6215276;23;20004;-58
2022/05/17 13:46:18;;;;;;;4.97;0.95;;;25.50;90.70;;;;;;6200802;23;19997;-56
2022/05/17 13:48:51;;;;;;;5.03;1.27;;;25.20;52.70;;;;;;6216493;23;20001;-56
2022/05/17 13:51:31;;;;;;;5.57;1.13;;;25.00;55.40;;;;;;6216007;23;20024;-57
2022/05/17 13:54:10;;;;;;;4.07;1.05;;;25.00;52.80;;;;;;6189242;23;20001;-57